Time;durP1;ratioP1;P1;durP2;ratioP2;P2;SDS_P1;SDS_P2;PMS_P1;PMS_P2;Temp;Humidity;BMP_temperature;BMP_pressure;BME280_temperature;BME280_humidity;BME280_pressure;Samples;Min_cycle;Max_cycle;Signal;HPM_P1;HPM_P2
2022/12/03 00:00:53;;;;;;;17.98;6.78;;;;;;;2.87;100.00;100811.09;6275434;28;20043;-78
2022/12/03 00:03:54;;;;;;;13.75;6.55;;;;;;;2.89;100.00;100827.41;6275692;28;20123;-78
2022/12/03 00:06:54;;;;;;;10.05;6.78;;;;;;;2.92;100.00;100825.59;6275556;28;20049;-78
2022/12/03 00:09:55;;;;;;;11.48;7.07;;;;;;;2.88;100.00;100830.84;6276354;28;20053;-78
2022/12/03 00:12:56;;;;;;;13.68;7.63;;;;;;;2.88;100.00;100825.69;6276570;28;20460;-78
2022/12/03 00:15:56;;;;;;;10.20;6.50;;;;;;;2.89;100.00;100827.41;6275280;28;20099;-78
2022/12/03 00:18:57;;;;;;;12.40;6.63;;;;;;;2.88;100.00;100831.69;6275384;28;20044;-78
2022/12/03 00:21:58;;;;;;;14.65;7.05;;;;;;;2.89;100.00;100840.28;6275016;28;20049;-78
2022/12/03 00:24:59;;;;;;;16.17;6.72;;;;;;;2.86;100.00;100842.91;6275174;28;20041;-78
2022/12/03 00:27:59;;;;;;;10.00;6.65;;;;;;;2.83;100.00;100846.38;6276093;28;20072;-78
2022/12/03 00:31:00;;;;;;;12.07;6.07;;;;;;;2.89;100.00;100855.75;6276896;28;20044;-78
2022/12/03 00:34:01;;;;;;;11.50;5.93;;;;;;;2.87;100.00;100858.34;6292107;28;20040;-78
2022/12/03 00:37:01;;;;;;;15.63;6.85;;;;;;;2.88;100.00;100861.78;6275894;28;20041;-78
2022/12/03 00:40:06;;;;;;;14.63;6.50;;;;;;;2.82;100.00;100862.72;6274875;28;20545;-78
2022/12/03 00:43:09;;;;;;;12.10;6.18;;;;;;;2.82;100.00;100858.44;6291509;28;20504;-78
2022/12/03 00:46:10;;;;;;;13.73;7.78;;;;;;;2.79;100.00;100862.78;6275724;28;20448;-78
2022/12/03 00:49:10;;;;;;;15.48;7.38;;;;;;;2.78;100.00;100856.78;6274354;28;20045;-78
2022/12/03 00:52:11;;;;;;;13.48;6.18;;;;;;;2.81;100.00;100846.41;6274428;28;20056;-78
2022/12/03 00:55:12;;;;;;;9.88;5.78;;;;;;;2.79;100.00;100850.72;6274576;28;20048;-78
2022/12/03 00:58:13;;;;;;;16.33;7.38;;;;;;;2.77;100.00;100843.91;6275582;28;20049;-78
2022/12/03 01:01:13;;;;;;;14.00;6.97;;;;;;;2.75;100.00;100843.09;6275533;28;20460;-78
2022/12/03 01:04:14;;;;;;;14.52;6.63;;;;;;;2.70;100.00;100838.00;6274483;28;20098;-78
2022/12/03 01:07:15;;;;;;;14.82;6.68;;;;;;;2.71;100.00;100839.69;6273853;28;20059;-78
2022/12/03 01:10:16;;;;;;;17.95;7.35;;;;;;;2.63;100.00;100839.81;6272780;28;20085;-78
2022/12/03 01:13:17;;;;;;;15.07;7.10;;;;;;;2.69;100.00;100832.88;6275269;28;20049;-78
2022/12/03 01:16:17;;;;;;;16.90;6.55;;;;;;;2.75;100.00;100841.34;6273671;28;20056;-78
2022/12/03 01:19:18;;;;;;;11.10;6.53;;;;;;;2.81;100.00;100851.56;6272721;28;20116;-78
2022/12/03 01:22:19;;;;;;;10.38;6.32;;;;;;;2.86;100.00;100850.63;6272964;28;20044;-78
2022/12/03 01:25:20;;;;;;;14.02;7.00;;;;;;;2.86;100.00;100843.75;6274945;28;20049;-78
2022/12/03 01:28:23;;;;;;;9.85;6.55;;;;;;;2.83;100.00;100842.06;6273966;28;20052;-78
2022/12/03 01:34:44;;;;;;;9.43;5.78;;;;;;;2.88;100.00;100836.00;6274650;28;20581;-78
2022/12/03 01:37:44;;;;;;;8.65;6.03;;;;;;;2.86;100.00;100841.16;6273447;28;20051;-78
2022/12/03 01:40:45;;;;;;;12.05;6.45;;;;;;;2.69;100.00;100827.72;6274662;28;20048;-78
2022/12/03 01:43:47;;;;;;;13.05;7.47;;;;;;;2.67;100.00;100829.47;6273124;28;20044;-78
2022/12/03 01:46:50;;;;;;;12.13;6.03;;;;;;;2.69;100.00;100830.28;6273203;28;20041;-78
2022/12/03 01:50:01;;;;;;;17.85;7.55;;;;;;;2.75;100.00;100830.19;6274324;28;20494;-78
2022/12/03 01:53:03;;;;;;;14.82;6.97;;;;;;;2.77;100.00;100836.19;6256755;28;20111;-78
2022/12/03 01:56:04;;;;;;;13.57;7.30;;;;;;;2.79;100.00;100835.25;6274526;28;20065;-77
2022/12/03 01:59:05;;;;;;;11.23;6.03;;;;;;;2.73;100.00;100831.94;6274234;28;20037;-78
2022/12/03 02:02:17;;;;;;;16.00;8.30;;;;;;;2.72;100.00;100833.69;6272894;28;20053;-78
2022/12/03 02:05:25;;;;;;;15.68;7.35;;;;;;;2.71;100.00;100825.97;6256170;28;20052;-78
2022/12/03 02:08:31;;;;;;;12.50;6.32;;;;;;;2.75;100.00;100835.34;6273760;28;20061;-78
2022/12/03 02:11:36;;;;;;;17.10;7.57;;;;;;;2.69;100.00;100831.13;6273594;28;20049;-78
2022/12/03 02:14:37;;;;;;;14.88;6.72;;;;;;;2.71;100.00;100838.84;6273690;28;20075;-78
2022/12/03 02:17:38;;;;;;;14.80;6.43;;;;;;;2.76;100.00;100837.03;6272321;28;20041;-78
2022/12/03 02:21:04;;;;;;;17.90;7.45;;;;;;;2.82;100.00;100844.66;6272191;28;20099;-78
2022/12/03 02:24:23;;;;;;;12.57;6.35;;;;;;;2.77;100.00;100849.06;6272025;28;20044;-78
2022/12/03 02:27:27;;;;;;;14.00;6.47;;;;;;;2.76;100.00;100847.34;6273443;28;20047;-78
2022/12/03 02:30:29;;;;;;;8.30;5.47;;;;;;;2.73;100.00;100839.69;6271838;28;20045;-74
2022/12/03 02:33:31;;;;;;;13.40;6.57;;;;;;;2.70;100.00;100840.59;6271574;28;20223;-74
2022/12/03 02:36:32;;;;;;;10.55;6.10;;;;;;;2.68;100.00;100850.06;6272794;28;20044;-74
2022/12/03 02:39:36;;;;;;;23.33;8.07;;;;;;;2.77;100.00;100846.47;6271434;28;20041;-74
2022/12/03 02:42:38;;;;;;;17.80;8.57;;;;;;;2.74;100.00;100844.81;6271480;28;20416;-74
2022/12/03 02:45:41;;;;;;;17.42;8.13;;;;;;;2.74;100.00;100844.81;6271345;28;20041;-74
2022/12/03 02:48:42;;;;;;;16.42;6.53;;;;;;;2.74;100.00;100846.53;6271228;28;20045;-74
2022/12/03 02:51:43;;;;;;;17.25;7.82;;;;;;;2.76;100.00;100853.38;6254611;28;20045;-74
2022/12/03 02:54:44;;;;;;;12.43;6.97;;;;;;;2.81;100.00;100845.56;6271241;28;20860;-75
2022/12/03 02:57:50;;;;;;;12.68;6.85;;;;;;;2.80;100.00;100844.72;6271188;28;20061;-74
2022/12/03 03:00:52;;;;;;;10.80;6.45;;;;;;;2.83;100.00;100854.13;6254306;28;20455;-74
2022/12/03 03:03:54;;;;;;;9.60;5.97;;;;;;;2.78;100.00;100848.16;6271021;28;20044;-74
2022/12/03 03:06:54;;;;;;;11.88;6.63;;;;;;;2.80;100.00;100842.13;6270928;28;20075;-74
2022/12/03 03:09:55;;;;;;;15.32;8.07;;;;;;;2.80;100.00;100847.28;6270732;28;20055;-74
2022/12/03 03:12:56;;;;;;;17.55;9.00;;;;;;;2.83;100.00;100844.66;6270167;28;20068;-74
2022/12/03 03:16:01;;;;;;;17.60;7.50;;;;;;;2.82;100.00;100844.66;6270164;28;20045;-74
2022/12/03 03:19:02;;;;;;;16.80;7.30;;;;;;;2.86;100.00;100843.75;6254096;28;20053;-74
2022/12/03 03:22:08;;;;;;;23.60;7.40;;;;;;;2.81;100.00;100848.13;6304084;28;20072;-74
2022/12/03 03:25:14;;;;;;;11.13;5.85;;;;;;;2.80;100.00;100844.72;6271897;28;20095;-74
2022/12/03 03:28:18;;;;;;;10.88;6.88;;;;;;;2.79;100.00;100843.00;6287114;28;20162;-74
2022/12/03 03:31:22;;;;;;;15.57;7.03;;;;;;;2.79;100.00;100840.41;6271579;28;20120;-74
2022/12/03 03:34:23;;;;;;;11.40;7.07;;;;;;;2.71;100.00;100841.44;6269734;28;20037;-75
2022/12/03 03:37:24;;;;;;;14.15;6.78;;;;;;;2.70;100.00;100839.72;6303779;28;20048;-74
2022/12/03 03:40:26;;;;;;;12.88;8.32;;;;;;;2.67;100.00;100844.94;6270168;28;20056;-73
2022/12/03 03:43:28;;;;;;;10.23;5.95;;;;;;;2.77;100.00;100847.31;6271579;28;20045;-74
2022/12/03 03:46:29;;;;;;;10.48;5.78;;;;;;;2.77;100.00;100839.59;6270425;28;20076;-74
2022/12/03 03:49:30;;;;;;;13.45;7.35;;;;;;;2.86;100.00;100848.06;6270402;28;20388;-74
2022/12/03 03:52:31;;;;;;;16.40;7.65;;;;;;;2.84;100.00;100842.91;6270206;28;20041;-74
2022/12/03 03:55:33;;;;;;;12.63;6.93;;;;;;;2.83;100.00;100851.53;6270219;28;20045;-73
2022/12/03 03:58:34;;;;;;;16.27;6.65;;;;;;;2.85;100.00;100848.94;6271409;28;20045;-74
2022/12/03 04:01:35;;;;;;;13.48;5.95;;;;;;;2.83;100.00;100846.38;6271241;28;20048;-74
2022/12/03 04:04:36;;;;;;;19.65;7.82;;;;;;;2.93;100.00;100852.25;6270255;28;20044;-74
2022/12/03 04:07:37;;;;;;;12.20;8.05;;;;;;;2.87;100.00;100845.47;6271061;28;20471;-74
2022/12/03 04:13:57;;;;;;;12.07;7.60;;;;;;;2.85;100.00;100846.38;6271155;28;20049;-74
2022/12/03 04:16:58;;;;;;;15.65;7.32;;;;;;;2.86;100.00;100845.47;6271277;28;20045;-73
2022/12/03 04:20:01;;;;;;;17.98;7.22;;;;;;;2.83;100.00;100849.81;6271118;28;20045;-73
2022/12/03 04:23:02;;;;;;;14.65;7.57;;;;;;;2.86;100.00;100850.63;6271152;28;20124;-73
2022/12/03 04:29:22;;;;;;;8.52;5.30;;;;;;;2.93;100.00;100863.41;6270970;28;20049;-73
2022/12/03 04:35:42;;;;;;;10.05;6.47;;;;;;;2.90;100.00;100858.28;6271003;28;20076;-74
2022/12/03 04:38:42;;;;;;;15.02;6.65;;;;;;;2.95;100.00;100865.97;6271028;28;20041;-74
2022/12/03 04:41:43;;;;;;;12.18;6.40;;;;;;;2.90;100.00;100863.44;6270884;28;20049;-73
2022/12/03 04:44:44;;;;;;;16.10;8.52;;;;;;;2.88;100.00;100866.94;6270948;28;20044;-72
2022/12/03 04:47:44;;;;;;;11.50;6.80;;;;;;;2.90;100.00;100862.59;6274785;28;20052;-73
2022/12/03 04:50:45;;;;;;;12.50;7.45;;;;;;;2.89;100.00;100855.75;6275167;28;20135;-74
2022/12/03 04:53:46;;;;;;;13.88;6.13;;;;;;;2.81;100.00;100854.13;6273994;28;20051;-73
2022/12/03 04:56:47;;;;;;;15.95;7.85;;;;;;;2.79;100.00;100839.56;6273930;28;20049;-74
2022/12/03 04:59:47;;;;;;;14.93;5.63;;;;;;;2.83;100.00;100846.38;6273822;28;20045;-74
2022/12/03 05:02:48;;;;;;;12.48;7.32;;;;;;;2.84;100.00;100850.66;6275157;28;20048;-73
2022/12/03 05:05:49;;;;;;;13.20;7.00;;;;;;;2.80;100.00;100849.88;6274410;28;20064;-74
2022/12/03 05:08:49;;;;;;;15.85;6.97;;;;;;;2.78;100.00;100848.16;6272721;28;20192;-74
2022/12/03 05:11:50;;;;;;;15.98;7.40;;;;;;;2.79;100.00;100845.56;6274557;28;20045;-74
2022/12/03 05:14:51;;;;;;;13.88;6.82;;;;;;;2.79;100.00;100858.47;6274553;28;20049;-74
2022/12/03 05:17:51;;;;;;;17.98;8.50;;;;;;;2.81;100.00;100848.13;6273374;28;20508;-74
2022/12/03 05:20:52;;;;;;;12.15;7.15;;;;;;;2.89;100.00;100853.19;6274615;28;20057;-73
2022/12/03 05:23:53;;;;;;;14.20;6.70;;;;;;;2.86;100.00;100845.47;6273203;28;20110;-74
2022/12/03 05:26:53;;;;;;;11.95;6.82;;;;;;;2.76;100.00;100847.34;6274339;28;20041;-74
2022/12/03 05:29:54;;;;;;;17.95;7.18;;;;;;;2.76;100.00;100843.06;6273103;28;20118;-74
2022/12/03 05:32:55;;;;;;;18.05;7.90;;;;;;;2.77;100.00;100838.75;6274291;28;20483;-74
2022/12/03 05:35:55;;;;;;;21.52;9.45;;;;;;;2.86;100.00;100845.47;6256437;28;20144;-74
2022/12/03 05:38:56;;;;;;;14.27;8.55;;;;;;;2.89;100.00;100848.03;6272737;28;20041;-74
2022/12/03 05:45:17;;;;;;;13.55;6.45;;;;;;;2.85;100.00;100847.22;6272686;28;20107;-74
2022/12/03 05:48:18;;;;;;;22.13;7.20;;;;;;;2.89;100.00;100848.03;6289550;28;20103;-74
2022/12/03 05:51:19;;;;;;;14.15;7.82;;;;;;;2.86;100.00;100842.91;6273637;28;20455;-74
2022/12/03 05:54:20;;;;;;;20.27;8.13;;;;;;;2.87;100.00;100839.47;6273724;28;20048;-73
2022/12/03 05:57:21;;;;;;;17.85;6.55;;;;;;;2.87;100.00;100837.72;6272243;28;20123;-74
2022/12/03 06:00:36;;;;;;;17.20;9.10;;;;;;;2.95;100.00;100848.75;6272554;28;20506;-73
2022/12/03 06:03:37;;;;;;;14.18;6.85;;;;;;;2.91;100.00;100859.16;6273839;28;20106;-74
2022/12/03 06:06:38;;;;;;;12.55;7.32;;;;;;;2.86;100.00;100850.63;6272212;28;20060;-73
2022/12/03 06:09:39;;;;;;;13.20;7.45;;;;;;;2.80;100.00;100854.16;6273410;28;20064;-73
2022/12/03 06:12:39;;;;;;;11.20;6.65;;;;;;;2.86;100.00;100855.78;6271879;28;20041;-74
2022/12/03 06:15:40;;;;;;;10.93;6.82;;;;;;;2.86;100.00;100858.38;6273517;28;20142;-77
2022/12/03 06:18:41;;;;;;;12.00;7.30;;;;;;;2.84;100.00;100858.38;6273725;28;20073;-77
2022/12/03 06:21:42;;;;;;;14.20;7.43;;;;;;;2.90;100.00;100857.44;6272593;28;20053;-77
2022/12/03 06:24:43;;;;;;;15.38;7.78;;;;;;;2.86;100.00;100851.47;6272390;28;20119;-77
2022/12/03 06:27:43;;;;;;;12.98;6.80;;;;;;;2.89;100.00;100853.19;6272405;28;20045;-77
2022/12/03 06:30:44;;;;;;;13.57;7.80;;;;;;;2.88;100.00;100864.34;6271926;28;20073;-77
2022/12/03 06:33:47;;;;;;;13.73;8.02;;;;;;;2.89;100.00;100861.75;6272180;28;20045;-79
2022/12/03 06:36:49;;;;;;;16.58;7.53;;;;;;;2.80;100.00;100867.03;6271883;28;20064;-77
2022/12/03 06:39:49;;;;;;;13.50;7.47;;;;;;;2.80;100.00;100875.66;6273320;28;20127;-79
2022/12/03 06:42:50;;;;;;;21.67;9.82;;;;;;;2.80;100.00;100873.06;6271694;28;20037;-79
2022/12/03 06:45:51;;;;;;;21.70;8.13;;;;;;;2.85;100.00;100867.00;6271699;28;20537;-77
2022/12/03 06:48:52;;;;;;;23.55;8.07;;;;;;;2.86;100.00;100869.53;6273336;28;20064;-77
2022/12/03 06:51:53;;;;;;;17.05;9.00;;;;;;;2.85;100.00;100875.56;6305181;28;20483;-77
2022/12/03 06:54:53;;;;;;;14.48;7.75;;;;;;;2.85;100.00;100878.16;6271832;28;20123;-77
2022/12/03 06:57:54;;;;;;;18.80;9.77;;;;;;;2.88;100.00;100869.50;6272814;28;20077;-77
2022/12/03 07:00:55;;;;;;;17.27;8.75;;;;;;;2.95;100.00;100879.69;6272488;28;20052;-77
2022/12/03 07:03:57;;;;;;;20.15;9.70;;;;;;;2.93;100.00;100876.28;6271562;28;20052;-77
2022/12/03 07:06:58;;;;;;;15.20;8.65;;;;;;;3.04;100.00;100878.69;6270376;28;20043;-77
2022/12/03 07:09:59;;;;;;;17.30;8.80;;;;;;;3.10;100.00;100880.31;6271387;28;20049;-77
2022/12/03 07:13:00;;;;;;;22.73;10.82;;;;;;;3.13;100.00;100885.41;6272235;28;20045;-77
2022/12/03 07:16:03;;;;;;;20.25;10.18;;;;;;;3.17;100.00;100892.22;6271026;28;20365;-77
2022/12/03 07:19:05;;;;;;;20.88;11.60;;;;;;;3.19;100.00;100900.78;6272360;28;20132;-77
2022/12/03 07:22:06;;;;;;;23.70;12.45;;;;;;;3.25;100.00;100894.69;6272287;28;20655;-77
2022/12/03 07:25:13;;;;;;;20.88;9.98;;;;;;;3.33;100.00;100892.81;6270699;28;20045;-77
2022/12/03 07:28:13;;;;;;;18.40;10.80;;;;;;;3.31;100.00;100898.00;6270942;28;20094;-77
2022/12/03 07:31:14;;;;;;;22.95;10.50;;;;;;;3.39;100.00;100900.44;6281010;28;20045;-77
2022/12/03 07:34:15;;;;;;;15.45;8.25;;;;;;;3.36;100.00;100895.34;6279643;28;20093;-77
2022/12/03 07:37:16;;;;;;;16.75;9.05;;;;;;;3.45;100.00;100899.50;6285093;28;20037;-77
2022/12/03 07:40:17;;;;;;;15.18;9.43;;;;;;;3.43;100.00;100890.03;6269681;28;20056;-77
2022/12/03 07:43:20;;;;;;;17.88;9.75;;;;;;;3.53;100.00;100901.03;6271163;28;20542;-77
2022/12/03 07:46:21;;;;;;;19.40;10.80;;;;;;;3.65;100.00;100901.72;6269626;28;20052;-77
2022/12/03 07:49:22;;;;;;;17.50;10.15;;;;;;;3.67;100.00;100903.38;6253270;28;20132;-77
2022/12/03 07:52:23;;;;;;;20.30;11.07;;;;;;;3.79;100.00;100907.47;6270619;28;20132;-77
2022/12/03 07:55:24;;;;;;;17.45;9.05;;;;;;;3.96;100.00;100901.97;6252928;28;20135;-78
2022/12/03 07:58:25;;;;;;;20.30;9.43;;;;;;;4.01;100.00;100895.78;6270784;28;20037;-77
2022/12/03 08:01:26;;;;;;;18.60;9.75;;;;;;;4.21;100.00;100908.31;6270113;28;20429;-77
2022/12/03 08:04:27;;;;;;;15.02;8.45;;;;;;;4.32;100.00;100899.47;6289673;28;20041;-73
2022/12/03 08:07:28;;;;;;;23.42;9.45;;;;;;;4.42;100.00;100883.72;6295357;28;20376;-77
2022/12/03 08:10:29;;;;;;;14.63;7.95;;;;;;;4.37;100.00;100892.50;6293994;28;20048;-77
2022/12/03 08:13:32;;;;;;;19.25;9.98;;;;;;;4.61;100.00;100891.06;6294054;28;20111;-77
2022/12/03 08:16:37;;;;;;;21.27;11.15;;;;;;;4.68;100.00;100899.56;6294318;28;20064;-77
2022/12/03 08:19:44;;;;;;;25.10;11.05;;;;;;;4.83;100.00;100899.19;6278066;28;20052;-78
2022/12/03 08:22:47;;;;;;;15.90;8.77;;;;;;;4.94;100.00;100897.22;6292467;28;20044;-77
2022/12/03 08:25:50;;;;;;;20.83;10.70;;;;;;;5.02;100.00;100905.63;6298769;28;20110;-77
2022/12/03 08:28:52;;;;;;;29.58;8.73;;;;;;;5.08;100.00;100901.19;6298821;28;20037;-78
2022/12/03 08:31:55;;;;;;;14.68;9.18;;;;;;;5.25;100.00;100894.69;6332320;28;20417;-77
2022/12/03 08:34:56;;;;;;;26.10;10.05;;;;;;;5.51;100.00;100893.16;6298624;28;20382;-78
2022/12/03 08:38:04;;;;;;;18.55;10.63;;;;;;;5.64;100.00;100901.44;6299672;28;20041;-78
2022/12/03 08:41:14;;;;;;;22.63;12.52;;;;;;;5.83;100.00;100896.63;6298540;28;20040;-77
2022/12/03 08:44:31;;;;;;;22.75;11.30;;;;;;;5.74;100.00;100894.28;6297175;28;20523;-77
2022/12/03 08:47:32;;;;;;;19.20;10.95;;;;;;;5.80;100.00;100899.28;6296764;28;20123;-77
2022/12/03 08:50:38;;;;;;;15.10;8.98;;;;;;;5.78;100.00;100901.06;6299166;28;20043;-77
2022/12/03 08:53:50;;;;;;;17.80;9.63;;;;;;;6.14;100.00;100898.38;6314975;28;20056;-77
2022/12/03 08:56:51;;;;;;;19.42;11.13;;;;;;;6.34;100.00;100902.94;6298091;28;20033;-77
2022/12/03 08:59:58;;;;;;;22.70;10.65;;;;;;;6.25;99.77;100902.34;6281237;28;20135;-77
2022/12/03 09:03:00;;;;;;;24.75;12.25;;;;;;;6.23;100.00;100898.09;6299071;28;20048;-77
2022/12/03 09:06:00;;;;;;;19.35;10.77;;;;;;;6.55;99.10;100884.16;6299302;28;20487;-77
2022/12/03 09:09:01;;;;;;;18.98;9.43;;;;;;;6.65;97.58;100893.34;6297446;28;20060;-78
2022/12/03 09:12:03;;;;;;;16.38;9.45;;;;;;;6.69;97.32;100903.63;6298658;28;20076;-77
2022/12/03 09:15:04;;;;;;;14.95;8.35;;;;;;;6.63;96.73;100899.47;6297828;28;20052;-77
2022/12/03 09:18:05;;;;;;;17.02;10.07;;;;;;;6.76;96.73;100894.75;6298983;28;20087;-78
2022/12/03 09:21:06;;;;;;;22.30;10.75;;;;;;;7.12;96.50;100897.88;6293402;28;20044;-77
2022/12/03 09:24:07;;;;;;;16.70;9.52;;;;;;;7.26;95.59;100903.47;6298797;28;20045;-77
2022/12/03 09:27:07;;;;;;;16.85;9.70;;;;;;;7.47;94.04;100901.91;6270313;28;20154;-77
2022/12/03 09:30:09;;;;;;;20.45;8.88;;;;;;;7.53;92.64;100897.41;6293832;28;20044;-78
2022/12/03 09:33:09;;;;;;;14.90;8.77;;;;;;;7.62;92.67;100892.72;6296519;28;20402;-77
2022/12/03 09:36:10;;;;;;;20.73;10.23;;;;;;;7.54;91.85;100888.72;6297287;28;20044;-78
2022/12/03 09:39:11;;;;;;;15.98;9.07;;;;;;;7.70;92.33;100889.88;6286891;28;20455;-78
2022/12/03 09:42:12;;;;;;;15.20;8.90;;;;;;;7.83;91.19;100891.09;6273321;28;20052;-77
2022/12/03 09:45:14;;;;;;;19.98;10.55;;;;;;;7.99;91.88;100887.94;6272140;28;20102;-78
2022/12/03 09:48:18;;;;;;;20.33;10.70;;;;;;;8.06;91.19;100892.03;6273367;28;20041;-78
2022/12/03 09:51:18;;;;;;;16.70;9.57;;;;;;;8.22;89.91;100884.50;6273104;28;20037;-77
2022/12/03 09:54:26;;;;;;;15.10;8.70;;;;;;;8.06;88.54;100876.41;6282888;28;20041;-77
2022/12/03 09:57:30;;;;;;;20.50;10.40;;;;;;;8.23;87.78;100873.19;6296832;28;20068;-78
2022/12/03 10:00:33;;;;;;;15.68;8.48;;;;;;;8.07;86.93;100863.38;6297952;28;20132;-77
2022/12/03 10:03:34;;;;;;;15.68;7.95;;;;;;;8.03;88.08;100869.59;6297951;28;20407;-77
2022/12/03 10:06:35;;;;;;;10.32;6.90;;;;;;;8.11;87.38;100868.44;6279748;28;20053;-77
2022/12/03 10:09:36;;;;;;;15.07;7.82;;;;;;;8.10;87.29;100853.78;6297362;28;20060;-77
2022/12/03 10:12:38;;;;;;;14.52;8.35;;;;;;;8.35;87.25;100859.72;6296102;28;20509;-78
2022/12/03 10:15:38;;;;;;;18.67;9.13;;;;;;;8.76;86.12;100853.81;6296040;28;20131;-78
2022/12/03 10:18:46;;;;;;;17.63;10.02;;;;;;;8.64;85.35;100844.72;6296117;28;20045;-78
2022/12/03 10:21:46;;;;;;;14.27;8.07;;;;;;;8.60;84.28;100850.97;6297416;28;20052;-78
2022/12/03 10:25:21;;;;;;;16.17;9.18;;;;;;;8.97;83.64;100844.25;6329753;28;20052;-77
2022/12/03 10:28:38;;;;;;;21.25;10.80;;;;;;;8.84;83.86;100844.78;6293684;28;20084;-77
2022/12/03 10:31:39;;;;;;;19.00;9.60;;;;;;;8.72;84.25;100834.88;6271169;28;20041;-77
2022/12/03 10:34:41;;;;;;;15.63;8.30;;;;;;;8.88;84.41;100832.50;6272010;28;20115;-77
2022/12/03 10:38:01;;;;;;;16.73;9.47;;;;;;;9.12;83.81;100834.97;6272210;28;20037;-78
2022/12/03 10:41:19;;;;;;;19.65;10.00;;;;;;;9.08;81.50;100829.91;6254163;28;20053;-77
2022/12/03 10:44:24;;;;;;;18.00;9.23;;;;;;;8.96;82.91;100820.00;6271777;28;20087;-76
2022/12/03 10:47:25;;;;;;;17.70;8.75;;;;;;;8.94;82.39;100821.81;6278179;28;20044;-76
2022/12/03 10:50:25;;;;;;;16.60;9.35;;;;;;;9.12;82.12;100815.00;6315047;28;20132;-76
2022/12/03 10:53:31;;;;;;;14.95;7.88;;;;;;;9.35;83.06;100815.72;6280230;28;20037;-76
2022/12/03 10:56:31;;;;;;;16.40;9.40;;;;;;;9.39;83.48;100820.75;6290208;28;20070;-76
2022/12/03 10:59:33;;;;;;;14.43;8.70;;;;;;;9.55;80.85;100818.31;6254163;28;20049;-76
2022/12/03 11:02:34;;;;;;;15.85;9.27;;;;;;;9.78;79.95;100813.81;6289591;28;20482;-76
2022/12/03 11:05:35;;;;;;;14.32;8.60;;;;;;;9.67;78.80;100817.75;6271431;28;20098;-76
2022/12/03 11:08:36;;;;;;;15.82;9.23;;;;;;;9.42;78.66;100806.75;6269920;28;20499;-76
2022/12/03 11:11:52;;;;;;;14.18;8.35;;;;;;;9.28;78.26;100807.34;6223205;28;20496;-76
2022/12/03 11:14:56;;;;;;;14.07;8.48;;;;;;;9.38;78.32;100815.63;6270015;28;20041;-76
2022/12/03 11:17:57;;;;;;;21.35;9.80;;;;;;;9.56;80.11;100806.97;6271283;28;20476;-76
2022/12/03 11:21:05;;;;;;;14.30;8.52;;;;;;;9.39;78.51;100806.88;6269786;28;20049;-76
2022/12/03 11:24:17;;;;;;;12.80;8.55;;;;;;;9.20;79.11;100804.22;6269940;28;20065;-76
2022/12/03 11:27:19;;;;;;;17.25;9.18;;;;;;;9.51;82.31;100806.31;6269867;28;20087;-74
2022/12/03 11:30:40;;;;;;;;;;;;;;;9.73;79.31;100810.59;6270214;28;20041;-74
2022/12/03 11:33:42;;;;;;;14.93;8.10;;;;;;;9.89;78.36;100804.59;6269488;28;20015;-74
2022/12/03 11:37:13;;;;;;;19.08;9.40;;;;;;;10.08;76.51;100806.34;6269582;28;20053;-74
2022/12/03 11:40:17;;;;;;;20.05;10.05;;;;;;;10.12;76.62;100807.06;6270883;28;20106;-74
2022/12/03 11:43:54;;;;;;;18.10;10.93;;;;;;;9.78;76.05;100800.78;6269556;28;20163;-74
2022/12/03 11:46:59;;;;;;;18.45;10.07;;;;;;;9.87;75.87;100809.03;6269389;28;20048;-73
2022/12/03 11:50:00;;;;;;;15.57;8.57;;;;;;;10.05;77.14;100809.13;6252827;28;20064;-73
2022/12/03 11:53:14;;;;;;;17.58;8.57;;;;;;;10.22;75.10;100805.72;6270703;28;20048;-74
2022/12/03 11:56:23;;;;;;;17.83;8.93;;;;;;;10.27;73.75;100815.00;6272962;28;20037;-74
2022/12/03 11:59:24;;;;;;;16.55;8.95;;;;;;;10.24;72.94;100802.09;6274548;28;20082;-74
2022/12/03 12:02:24;;;;;;;18.77;9.15;;;;;;;10.27;73.13;100801.97;6275599;28;20049;-74
2022/12/03 12:05:28;;;;;;;16.80;8.43;;;;;;;10.11;74.06;100810.56;6275590;28;20411;-74
2022/12/03 12:08:29;;;;;;;15.68;8.95;;;;;;;9.84;75.16;100793.56;6274357;28;20041;-74
2022/12/03 12:11:31;;;;;;;15.68;7.38;;;;;;;9.73;75.78;100802.78;6275187;28;20135;-74
2022/12/03 12:14:32;;;;;;;17.83;8.50;;;;;;;9.70;75.62;100793.34;6274074;28;20044;-73
2022/12/03 12:17:35;;;;;;;15.18;8.23;;;;;;;9.78;75.98;100792.97;6274000;28;20059;-73
2022/12/03 12:20:36;;;;;;;14.30;8.35;;;;;;;9.86;74.66;100786.50;6290580;28;20495;-74
2022/12/03 12:23:37;;;;;;;14.75;8.20;;;;;;;9.97;74.25;100796.44;6273640;28;20059;-73
2022/12/03 12:26:37;;;;;;;18.98;7.45;;;;;;;9.75;74.81;100791.34;6292093;28;20045;-73
2022/12/03 12:29:40;;;;;;;12.60;7.88;;;;;;;9.84;75.56;100787.47;6301637;28;20052;-74
2022/12/03 12:32:51;;;;;;;18.42;8.27;;;;;;;10.03;77.50;100797.91;6298614;28;20044;-74
2022/12/03 12:35:52;;;;;;;14.43;7.53;;;;;;;10.10;74.47;100791.47;6300085;28;20044;-73
2022/12/03 12:38:53;;;;;;;11.98;7.22;;;;;;;10.22;75.76;100787.44;6299683;28;20111;-74
2022/12/03 12:41:54;;;;;;;17.45;9.20;;;;;;;10.19;74.24;100788.44;6298425;28;20051;-74
2022/12/03 12:45:15;;;;;;;46.80;25.85;;;;;;;9.73;72.68;100792.34;6298643;28;20456;-73
2022/12/03 12:48:23;;;;;;;23.58;10.02;;;;;;;9.87;75.12;100787.34;6298247;28;20044;-73
2022/12/03 12:51:26;;;;;;;16.30;8.30;;;;;;;9.94;74.88;100788.75;6299393;28;20471;-74
2022/12/03 12:54:27;;;;;;;15.70;6.32;;;;;;;9.92;74.92;100781.91;6298061;28;20075;-75
2022/12/03 12:57:28;;;;;;;12.65;6.53;;;;;;;9.88;74.90;100784.69;6298208;28;20048;-74
2022/12/03 13:00:29;;;;;;;13.50;6.97;;;;;;;9.96;75.12;100784.28;6298025;28;20121;-74
2022/12/03 13:03:35;;;;;;;11.38;6.57;;;;;;;9.91;76.30;100783.69;6298062;28;20388;-74
2022/12/03 13:06:38;;;;;;;20.67;9.38;;;;;;;9.83;74.27;100780.59;6297811;28;20112;-74
2022/12/03 13:09:39;;;;;;;30.55;13.15;;;;;;;9.55;74.78;100760.16;6297853;28;20052;-74
2022/12/03 13:12:40;;;;;;;36.80;16.40;;;;;;;9.73;76.32;100772.34;6297847;28;20090;-74
2022/12/03 13:15:49;;;;;;;23.83;10.27;;;;;;;9.69;76.72;100762.97;6297729;28;20087;-74
2022/12/03 13:18:55;;;;;;;22.63;12.45;;;;;;;9.62;77.03;100767.63;6297756;28;20046;-74
2022/12/03 13:22:01;;;;;;;21.67;10.82;;;;;;;9.52;78.09;100761.13;6298801;28;20127;-73
2022/12/03 13:25:30;;;;;;;12.98;8.07;;;;;;;9.31;77.67;100762.09;6297488;28;20097;-74
2022/12/03 13:28:32;;;;;;;42.17;16.23;;;;;;;9.30;79.04;100765.63;6280506;28;20049;-74
2022/12/03 13:31:37;;;;;;;25.63;10.90;;;;;;;9.29;79.91;100775.19;6298144;28;20486;-74
2022/12/03 13:34:39;;;;;;;21.38;10.13;;;;;;;9.31;79.58;100777.72;6294152;28;20403;-74
2022/12/03 13:37:40;;;;;;;18.33;8.63;;;;;;;9.19;80.62;100782.56;6292153;28;20123;-74
2022/12/03 13:40:41;;;;;;;15.57;7.63;;;;;;;9.11;79.65;100776.84;6276652;28;20071;-73
2022/12/03 13:43:42;;;;;;;16.17;7.78;;;;;;;9.10;80.05;100771.69;6297298;28;20037;-73
2022/12/03 13:46:43;;;;;;;11.93;7.20;;;;;;;8.92;80.23;100771.59;6297084;28;20048;-74
2022/12/03 13:49:51;;;;;;;15.33;7.80;;;;;;;8.87;81.73;100763.97;6298156;28;20040;-73
2022/12/03 13:52:52;;;;;;;14.50;7.43;;;;;;;8.92;80.94;100768.16;6297100;28;20124;-73
2022/12/03 13:56:03;;;;;;;16.85;8.70;;;;;;;8.81;81.88;100761.63;6280017;28;20131;-73
2022/12/03 13:59:03;;;;;;;15.57;7.95;;;;;;;8.74;83.12;100759.34;6297929;28;20044;-73
2022/12/03 14:02:04;;;;;;;18.45;9.80;;;;;;;8.58;83.72;100753.94;6280029;28;20102;-73
2022/12/03 14:05:05;;;;;;;16.98;9.55;;;;;;;8.49;83.96;100756.94;6296438;28;20041;-74
2022/12/03 14:08:08;;;;;;;16.58;9.70;;;;;;;8.34;84.37;100755.75;6297943;28;20072;-74
2022/12/03 14:12:24;;;;;;;15.98;9.20;;;;;;;8.30;84.83;100757.66;6279573;28;20478;-73
2022/12/03 14:14:30;;;;;;;17.40;9.20;;;;;;;8.25;85.28;100764.78;6297638;28;20044;-73
2022/12/03 14:17:31;;;;;;;16.55;9.88;;;;;;;8.05;86.28;100766.41;6297667;28;20121;-73
2022/12/03 14:20:33;;;;;;;28.00;11.95;;;;;;;8.00;86.51;100763.13;6296241;28;20040;-73